Time;durP1;ratioP1;P1;durP2;ratioP2;P2;SDS_P1;SDS_P2;PMS_P1;PMS_P2;Temp;Humidity;BMP_temperature;BMP_pressure;BME280_temperature;BME280_humidity;BME280_pressure;Samples;Min_cycle;Max_cycle;Signal;HPM_P1;HPM_P2
2021/10/21 00:02:09;;;;;;;26.60;5.38;;;;;;;;;;4990849;28;20053;-69
2021/10/21 00:04:35;;;;;;;33.30;5.28;;;;;;;;;;4999461;28;20043;-69
2021/10/21 00:07:01;;;;;;;25.73;4.20;;;;;;;;;;5003173;28;20128;-69
2021/10/21 00:09:27;;;;;;;25.63;6.30;;;;;;;;;;4993337;28;20042;-69
2021/10/21 00:11:54;;;;;;;29.67;3.80;;;;;;;;;;4983372;28;20054;-69
2021/10/21 00:14:20;;;;;;;28.08;4.78;;;;;;;;;;4973822;28;20493;-70
2021/10/21 00:16:47;;;;;;;30.80;5.47;;;;;;;;;;4999963;28;20038;-69
2021/10/21 00:19:13;;;;;;;21.13;4.65;;;;;;;;;;5003699;28;20052;-69
2021/10/21 00:21:39;;;;;;;23.95;4.57;;;;;;;;;;4999282;28;20089;-70
2021/10/21 00:24:05;;;;;;;31.92;4.82;;;;;;;;;;4990860;28;20077;-69
2021/10/21 00:26:32;;;;;;;28.17;4.70;;;;;;;;;;4989922;28;20048;-69
2021/10/21 00:28:58;;;;;;;26.05;4.57;;;;;;;;;;5005898;28;20042;-69
2021/10/21 00:31:24;;;;;;;30.63;5.55;;;;;;;;;;5004090;28;20050;-69
2021/10/21 00:33:50;;;;;;;30.17;4.47;;;;;;;;;;4996945;28;20049;-69
2021/10/21 00:36:16;;;;;;;33.88;5.22;;;;;;;;;;4996483;28;20065;-69
2021/10/21 00:38:42;;;;;;;31.08;4.47;;;;;;;;;;5000767;28;20038;-69
2021/10/21 00:41:08;;;;;;;25.83;5.38;;;;;;;;;;4991151;28;20132;-69
2021/10/21 00:43:39;;;;;;;30.00;5.35;;;;;;;;;;5007552;28;20041;-69
2021/10/21 00:46:06;;;;;;;35.38;5.43;;;;;;;;;;4991413;28;20453;-69
2021/10/21 00:48:32;;;;;;;39.97;6.55;;;;;;;;;;4992362;28;20120;-69
2021/10/21 00:50:59;;;;;;;42.67;5.70;;;;;;;;;;4999488;28;20609;-69
2021/10/21 00:53:26;;;;;;;35.33;7.20;;;;;;;;;;5002331;28;20042;-69
2021/10/21 00:55:52;;;;;;;43.38;7.22;;;;;;;;;;5002734;28;20506;-69
2021/10/21 00:58:18;;;;;;;34.58;6.50;;;;;;;;;;5004162;28;20038;-69
2021/10/21 01:00:44;;;;;;;37.97;6.25;;;;;;;;;;5010778;28;20144;-69
2021/10/21 01:03:11;;;;;;;31.55;7.32;;;;;;;;;;4995557;28;20057;-69
2021/10/21 01:05:37;;;;;;;33.72;6.28;;;;;;;;;;4997968;28;20398;-69
2021/10/21 01:08:03;;;;;;;38.90;7.22;;;;;;;;;;5005522;28;20043;-69
2021/10/21 01:10:29;;;;;;;37.15;7.72;;;;;;;;;;4989483;28;20089;-69
2021/10/21 01:12:56;;;;;;;35.03;7.78;;;;;;;;;;5004407;28;20038;-69
2021/10/21 01:15:25;;;;;;;34.75;8.35;;;;;;;;;;5000889;28;20386;-69
2021/10/21 01:17:52;;;;;;;38.40;7.60;;;;;;;;;;4994716;28;20042;-69
2021/10/21 01:20:18;;;;;;;40.70;7.03;;;;;;;;;;4995703;28;20046;-69
2021/10/21 01:22:46;;;;;;;37.35;6.90;;;;;;;;;;5009489;28;20414;-69
2021/10/21 01:25:12;;;;;;;35.78;7.05;;;;;;;;;;5006225;28;20413;-68
2021/10/21 01:27:38;;;;;;;29.77;7.35;;;;;;;;;;4989487;28;20390;-69
2021/10/21 01:30:05;;;;;;;40.53;7.78;;;;;;;;;;5007247;28;20049;-68
2021/10/21 01:32:34;;;;;;;30.02;6.85;;;;;;;;;;5005156;28;20077;-69
2021/10/21 01:35:04;;;;;;;29.10;6.88;;;;;;;;;;5000005;28;20050;-69
2021/10/21 01:37:31;;;;;;;36.80;8.38;;;;;;;;;;5001753;28;20139;-68
2021/10/21 01:39:57;;;;;;;32.17;8.40;;;;;;;;;;5003550;28;20045;-69
2021/10/21 01:42:24;;;;;;;42.72;8.82;;;;;;;;;;5002659;28;20622;-69
2021/10/21 01:44:50;;;;;;;35.40;10.30;;;;;;;;;;5001333;28;20046;-69
2021/10/21 01:47:16;;;;;;;43.92;8.77;;;;;;;;;;5010424;28;20042;-69
2021/10/21 01:49:42;;;;;;;50.33;9.73;;;;;;;;;;4991644;28;20422;-68
2021/10/21 01:52:08;;;;;;;42.20;10.05;;;;;;;;;;5004051;28;20076;-69
2021/10/21 01:54:35;;;;;;;47.00;9.98;;;;;;;;;;4990448;28;20057;-68
2021/10/21 01:57:01;;;;;;;46.95;10.10;;;;;;;;;;4995995;28;20037;-68
2021/10/21 01:59:27;;;;;;;44.15;10.15;;;;;;;;;;4990215;28;20054;-69
2021/10/21 02:01:53;;;;;;;46.45;10.15;;;;;;;;;;4978048;28;20038;-68
2021/10/21 02:04:19;;;;;;;31.17;8.48;;;;;;;;;;4980018;28;20090;-69
2021/10/21 02:06:45;;;;;;;36.42;9.10;;;;;;;;;;4990270;28;20120;-69
2021/10/21 02:09:12;;;;;;;48.58;11.10;;;;;;;;;;4990817;28;20490;-69
2021/10/21 02:11:38;;;;;;;43.60;10.15;;;;;;;;;;4987758;28;20049;-68
2021/10/21 02:14:04;;;;;;;41.97;11.77;;;;;;;;;;4989107;28;20043;-69
2021/10/21 02:16:30;;;;;;;35.10;9.55;;;;;;;;;;4987393;28;20097;-69
2021/10/21 02:18:56;;;;;;;26.60;9.25;;;;;;;;;;4984608;28;20138;-69
2021/10/21 02:21:23;;;;;;;32.95;9.80;;;;;;;;;;4986953;28;20038;-69
2021/10/21 02:23:49;;;;;;;30.88;11.15;;;;;;;;;;4987194;28;20417;-68
2021/10/21 02:26:15;;;;;;;25.38;10.90;;;;;;;;;;4982143;28;20139;-69
2021/10/21 02:28:41;;;;;;;31.63;12.27;;;;;;;;;;4981146;28;20043;-69
2021/10/21 02:31:07;;;;;;;28.17;11.20;;;;;;;;;;4989042;28;20046;-69
2021/10/21 02:33:33;;;;;;;32.50;11.77;;;;;;;;;;4987049;28;20117;-69
2021/10/21 02:35:59;;;;;;;39.65;11.68;;;;;;;;;;4990136;28;20046;-69
2021/10/21 02:38:25;;;;;;;29.73;10.25;;;;;;;;;;4990621;28;20513;-69
2021/10/21 02:40:52;;;;;;;24.77;10.27;;;;;;;;;;4980232;28;20047;-69
2021/10/21 02:43:18;;;;;;;20.00;5.60;;;;;;;;;;4982683;28;20069;-68
2021/10/21 02:45:44;;;;;;;42.17;7.70;;;;;;;;;;4989326;28;20130;-68
2021/10/21 02:48:10;;;;;;;30.73;9.75;;;;;;;;;;4989026;28;20038;-68
2021/10/21 02:50:36;;;;;;;31.08;10.05;;;;;;;;;;4986149;28;20430;-68
2021/10/21 02:53:03;;;;;;;22.40;8.10;;;;;;;;;;4989411;28;20051;-68
2021/10/21 02:55:29;;;;;;;21.80;6.95;;;;;;;;;;4986687;28;20145;-69
2021/10/21 02:57:55;;;;;;;11.20;4.20;;;;;;;;;;4988090;28;20034;-68
2021/10/21 03:00:21;;;;;;;10.85;3.53;;;;;;;;;;4993762;28;20078;-68
2021/10/21 03:02:48;;;;;;;10.55;3.97;;;;;;;;;;4992908;28;20057;-68
2021/10/21 03:05:14;;;;;;;16.15;4.40;;;;;;;;;;4971504;28;20047;-68
2021/10/21 03:07:40;;;;;;;12.25;3.30;;;;;;;;;;4998725;28;20034;-68
2021/10/21 03:10:06;;;;;;;10.38;2.80;;;;;;;;;;5005346;28;20049;-68
2021/10/21 03:12:33;;;;;;;7.57;2.20;;;;;;;;;;5010872;28;20046;-68
2021/10/21 03:14:59;;;;;;;11.23;3.05;;;;;;;;;;4994498;28;20128;-68
2021/10/21 03:17:25;;;;;;;12.55;2.58;;;;;;;;;;4993881;28;20046;-68
2021/10/21 03:19:51;;;;;;;8.77;2.00;;;;;;;;;;5006215;28;20046;-68
2021/10/21 03:22:17;;;;;;;9.90;2.17;;;;;;;;;;4993098;28;20034;-68
2021/10/21 03:24:43;;;;;;;11.93;2.30;;;;;;;;;;5002529;28;20062;-68
2021/10/21 03:27:10;;;;;;;13.60;2.45;;;;;;;;;;4993932;28;20053;-68
2021/10/21 03:29:36;;;;;;;18.33;3.33;;;;;;;;;;5004721;28;20118;-68
2021/10/21 03:32:02;;;;;;;11.45;3.40;;;;;;;;;;4996531;28;20046;-68
2021/10/21 03:34:31;;;;;;;9.80;2.13;;;;;;;;;;5006150;28;20050;-68
2021/10/21 03:36:57;;;;;;;6.68;1.35;;;;;;;;;;5002160;28;20054;-68
2021/10/21 03:39:23;;;;;;;7.07;1.20;;;;;;;;;;4990012;28;20067;-67
2021/10/21 03:41:49;;;;;;;5.10;1.13;;;;;;;;;;4997130;28;20050;-68
2021/10/21 03:44:15;;;;;;;8.27;1.27;;;;;;;;;;4998446;28;20045;-68
2021/10/21 03:46:41;;;;;;;6.63;1.23;;;;;;;;;;5002651;28;20046;-68
2021/10/21 03:49:07;;;;;;;9.93;2.00;;;;;;;;;;5003052;28;20140;-69
2021/10/21 03:51:33;;;;;;;14.82;2.17;;;;;;;;;;4990939;28;20406;-68
2021/10/21 03:54:00;;;;;;;8.95;1.90;;;;;;;;;;4993478;28;20136;-68
2021/10/21 03:56:26;;;;;;;8.57;1.98;;;;;;;;;;4973446;28;20320;-68
2021/10/21 03:58:52;;;;;;;12.35;1.77;;;;;;;;;;5002546;28;20486;-68
2021/10/21 04:01:18;;;;;;;12.57;1.80;;;;;;;;;;5000256;28;20375;-68
2021/10/21 04:03:44;;;;;;;10.80;1.60;;;;;;;;;;4993689;28;20088;-68
2021/10/21 04:06:11;;;;;;;16.35;1.92;;;;;;;;;;4988399;28;20077;-68
2021/10/21 04:08:37;;;;;;;16.77;2.22;;;;;;;;;;4992295;28;20054;-68
2021/10/21 04:11:03;;;;;;;12.07;1.50;;;;;;;;;;4993133;28;20060;-68
2021/10/21 04:13:29;;;;;;;12.88;1.65;;;;;;;;;;5003627;28;20399;-68
2021/10/21 04:15:55;;;;;;;11.95;1.90;;;;;;;;;;5004639;28;20513;-68
2021/10/21 04:18:22;;;;;;;18.65;1.88;;;;;;;;;;5004250;28;20486;-68
2021/10/21 04:20:49;;;;;;;22.45;3.08;;;;;;;;;;5001754;28;20045;-68
2021/10/21 04:23:15;;;;;;;18.67;1.98;;;;;;;;;;5000019;28;20049;-69
2021/10/21 04:25:42;;;;;;;12.38;2.47;;;;;;;;;;4984282;28;20061;-68
2021/10/21 04:28:08;;;;;;;11.25;1.45;;;;;;;;;;5002344;28;20402;-68
2021/10/21 04:30:34;;;;;;;5.03;0.98;;;;;;;;;;4999019;28;20053;-69
2021/10/21 04:33:00;;;;;;;7.20;1.35;;;;;;;;;;4985442;28;20132;-69
2021/10/21 04:35:27;;;;;;;10.52;1.10;;;;;;;;;;5007526;28;20042;-68
2021/10/21 04:37:53;;;;;;;9.60;1.15;;;;;;;;;;4991856;28;20489;-69
2021/10/21 04:40:19;;;;;;;6.60;1.80;;;;;;;;;;5001324;28;20412;-69
2021/10/21 04:42:45;;;;;;;21.60;3.63;;;;;;;;;;4991514;28;20208;-68
2021/10/21 04:45:11;;;;;;;12.13;2.55;;;;;;;;;;4991819;28;20077;-68
2021/10/21 04:47:37;;;;;;;8.23;1.23;;;;;;;;;;5002409;28;20394;-68
2021/10/21 04:50:04;;;;;;;9.23;1.50;;;;;;;;;;5006944;28;20049;-69
2021/10/21 04:52:30;;;;;;;19.77;1.88;;;;;;;;;;5006312;28;20447;-68
2021/10/21 04:54:56;;;;;;;16.83;2.25;;;;;;;;;;5007584;28;20042;-69
2021/10/21 04:57:23;;;;;;;16.77;1.90;;;;;;;;;;4994998;28;20052;-69
2021/10/21 04:59:49;;;;;;;20.85;1.83;;;;;;;;;;4982149;28;20054;-69
2021/10/21 05:02:15;;;;;;;16.77;2.53;;;;;;;;;;4981140;28;20054;-69
2021/10/21 05:04:41;;;;;;;12.25;1.73;;;;;;;;;;4980883;28;21424;-69
2021/10/21 05:07:07;;;;;;;10.20;1.35;;;;;;;;;;4994687;28;20057;-68
2021/10/21 05:09:33;;;;;;;11.77;1.08;;;;;;;;;;4980358;28;20053;-69
2021/10/21 05:12:00;;;;;;;7.95;1.60;;;;;;;;;;4986780;28;20085;-68
2021/10/21 05:14:26;;;;;;;18.08;1.25;;;;;;;;;;4987281;28;20582;-68
2021/10/21 05:16:52;;;;;;;13.07;1.30;;;;;;;;;;4982441;28;20043;-69
2021/10/21 05:19:19;;;;;;;11.07;1.40;;;;;;;;;;4987768;28;20121;-68
2021/10/21 05:21:45;;;;;;;10.82;1.88;;;;;;;;;;4994854;28;20046;-69
2021/10/21 05:24:11;;;;;;;13.45;1.30;;;;;;;;;;4986661;28;20093;-69
2021/10/21 05:26:37;;;;;;;10.82;1.48;;;;;;;;;;4982867;28;20047;-69
2021/10/21 05:29:03;;;;;;;16.95;2.20;;;;;;;;;;4986072;28;20046;-69
2021/10/21 05:31:29;;;;;;;16.90;1.80;;;;;;;;;;4983707;28;20073;-69
2021/10/21 05:33:56;;;;;;;19.00;2.10;;;;;;;;;;4985432;28;20066;-69
2021/10/21 05:36:22;;;;;;;15.70;2.05;;;;;;;;;;4984010;28;20042;-69
2021/10/21 05:38:48;;;;;;;26.13;4.22;;;;;;;;;;4982101;28;20082;-69
2021/10/21 05:41:14;;;;;;;18.50;2.05;;;;;;;;;;4985709;28;20069;-69
2021/10/21 05:43:41;;;;;;;20.45;2.38;;;;;;;;;;4979738;28;20053;-69
2021/10/21 05:46:07;;;;;;;24.88;2.95;;;;;;;;;;4988047;28;20049;-69
2021/10/21 05:48:33;;;;;;;22.33;2.97;;;;;;;;;;4980163;28;20038;-69
2021/10/21 05:51:01;;;;;;;20.30;2.60;;;;;;;;;;4987983;28;20039;-69
2021/10/21 05:53:27;;;;;;;22.15;2.17;;;;;;;;;;4988883;28;20058;-69
2021/10/21 05:55:53;;;;;;;20.67;2.70;;;;;;;;;;4989529;28;20062;-70
2021/10/21 05:58:19;;;;;;;14.43;1.40;;;;;;;;;;4989170;28;20046;-70
2021/10/21 06:00:45;;;;;;;16.48;2.00;;;;;;;;;;4986633;28;20503;-69
2021/10/21 06:03:12;;;;;;;16.52;1.70;;;;;;;;;;5002408;28;20046;-69
2021/10/21 06:05:38;;;;;;;14.93;2.13;;;;;;;;;;4990896;28;20064;-69
2021/10/21 06:08:04;;;;;;;14.25;2.28;;;;;;;;;;5001982;28;20056;-68
2021/10/21 06:10:31;;;;;;;15.27;1.88;;;;;;;;;;5001035;28;20433;-69
2021/10/21 06:12:58;;;;;;;12.88;1.48;;;;;;;;;;4997817;28;20132;-70
2021/10/21 06:15:25;;;;;;;14.10;1.83;;;;;;;;;;4996829;28;20177;-70
2021/10/21 06:17:51;;;;;;;8.18;1.20;;;;;;;;;;4994886;28;20037;-69
2021/10/21 06:20:17;;;;;;;15.85;2.70;;;;;;;;;;5002368;28;20046;-69
2021/10/21 06:22:44;;;;;;;13.10;1.55;;;;;;;;;;4988480;28;20470;-69
2021/10/21 06:25:11;;;;;;;11.85;1.40;;;;;;;;;;4989488;28;20065;-69
2021/10/21 06:27:38;;;;;;;9.18;1.50;;;;;;;;;;4987706;28;20046;-69
2021/10/21 06:30:05;;;;;;;19.02;2.38;;;;;;;;;;4993633;28;20046;-70
2021/10/21 06:32:31;;;;;;;18.08;2.20;;;;;;;;;;4976650;28;20534;-70
2021/10/21 06:34:57;;;;;;;14.48;1.60;;;;;;;;;;5003162;28;20038;-69
2021/10/21 06:37:23;;;;;;;12.25;1.58;;;;;;;;;;5004033;28;20050;-70
2021/10/21 06:39:54;;;;;;;13.80;1.52;;;;;;;;;;5005022;28;20374;-70
2021/10/21 06:42:21;;;;;;;18.77;1.98;;;;;;;;;;4985658;28;20053;-69
2021/10/21 06:44:47;;;;;;;12.02;1.67;;;;;;;;;;4999716;28;20042;-69
2021/10/21 06:47:13;;;;;;;19.25;2.20;;;;;;;;;;5001851;28;20469;-70
2021/10/21 06:49:39;;;;;;;15.40;1.95;;;;;;;;;;5004184;28;20430;-70
2021/10/21 06:52:05;;;;;;;15.60;1.95;;;;;;;;;;4994656;28;20518;-70
2021/10/21 06:54:32;;;;;;;16.00;2.05;;;;;;;;;;4991531;28;20475;-70
2021/10/21 06:56:58;;;;;;;14.25;2.78;;;;;;;;;;4998419;28;20132;-69
2021/10/21 06:59:25;;;;;;;13.90;2.33;;;;;;;;;;4988691;28;20410;-69
2021/10/21 07:01:51;;;;;;;17.35;1.90;;;;;;;;;;4985386;28;20135;-70
2021/10/21 07:04:18;;;;;;;15.88;2.38;;;;;;;;;;4988240;28;20088;-69
2021/10/21 07:06:44;;;;;;;14.13;1.98;;;;;;;;;;4989227;28;20062;-69
2021/10/21 07:09:10;;;;;;;15.98;2.03;;;;;;;;;;4988305;28;20038;-69
2021/10/21 07:11:37;;;;;;;12.82;1.80;;;;;;;;;;4988683;28;20038;-69
2021/10/21 07:14:03;;;;;;;13.52;2.08;;;;;;;;;;4990098;28;20402;-69
2021/10/21 07:16:29;;;;;;;13.27;2.42;;;;;;;;;;4990284;28;20065;-69
2021/10/21 07:18:55;;;;;;;13.07;2.28;;;;;;;;;;4991286;28;20451;-70
2021/10/21 07:21:23;;;;;;;14.85;3.50;;;;;;;;;;4991164;28;20486;-69
2021/10/21 07:23:49;;;;;;;18.02;2.95;;;;;;;;;;4990914;28;20058;-69
2021/10/21 07:26:15;;;;;;;24.13;3.30;;;;;;;;;;4991319;28;20054;-69
2021/10/21 07:28:41;;;;;;;14.95;1.67;;;;;;;;;;4990250;28;20509;-69
2021/10/21 07:31:13;;;;;;;13.10;2.63;;;;;;;;;;4991162;28;20553;-69
2021/10/21 07:33:39;;;;;;;16.55;2.13;;;;;;;;;;4986792;28;20423;-69
2021/10/21 07:36:05;;;;;;;16.35;2.08;;;;;;;;;;4991701;28;20105;-69
2021/10/21 07:38:32;;;;;;;7.82;1.25;;;;;;;;;;4990996;28;20038;-69
2021/10/21 07:40:59;;;;;;;6.22;0.90;;;;;;;;;;4990897;28;20058;-69
2021/10/21 07:43:25;;;;;;;7.63;0.82;;;;;;;;;;4991801;28;20116;-69
2021/10/21 07:45:51;;;;;;;4.03;0.88;;;;;;;;;;4992109;28;20046;-69
2021/10/21 07:48:17;;;;;;;5.30;1.00;;;;;;;;;;4990922;28;20113;-69
2021/10/21 07:50:45;;;;;;;13.10;1.42;;;;;;;;;;4990330;28;20061;-69
2021/10/21 07:53:12;;;;;;;10.15;1.52;;;;;;;;;;4990839;28;20054;-69
2021/10/21 07:55:38;;;;;;;8.35;1.13;;;;;;;;;;5007310;28;20043;-69
2021/10/21 07:58:05;;;;;;;18.15;2.17;;;;;;;;;;4991332;28;20141;-69
2021/10/21 08:00:32;;;;;;;15.02;2.03;;;;;;;;;;5010031;28;20140;-69
2021/10/21 08:02:59;;;;;;;19.67;3.47;;;;;;;;;;4977483;28;20054;-69
2021/10/21 08:05:27;;;;;;;10.98;1.77;;;;;;;;;;4993068;28;20064;-69
2021/10/21 08:07:54;;;;;;;14.73;1.55;;;;;;;;;;5007884;28;20104;-69
2021/10/21 08:10:20;;;;;;;15.35;2.88;;;;;;;;;;5011028;28;20370;-69
2021/10/21 08:12:47;;;;;;;7.40;1.00;;;;;;;;;;4992880;28;20042;-69
2021/10/21 08:15:13;;;;;;;11.88;1.15;;;;;;;;;;4993762;28;20041;-69
2021/10/21 08:17:42;;;;;;;13.60;2.20;;;;;;;;;;5011325;28;20077;-69
2021/10/21 08:20:10;;;;;;;15.27;2.63;;;;;;;;;;5011132;28;20065;-69
2021/10/21 08:22:37;;;;;;;8.18;1.48;;;;;;;;;;4993364;28;20069;-69
2021/10/21 08:25:03;;;;;;;13.90;2.47;;;;;;;;;;5010616;28;20196;-69
2021/10/21 08:27:29;;;;;;;12.60;2.13;;;;;;;;;;4993326;28;20088;-69
2021/10/21 08:29:55;;;;;;;12.38;1.70;;;;;;;;;;4992937;28;20053;-67
2021/10/21 08:32:22;;;;;;;12.57;1.98;;;;;;;;;;4991079;28;20240;-67
2021/10/21 08:34:49;;;;;;;11.00;2.42;;;;;;;;;;4991871;28;20050;-67
2021/10/21 08:37:15;;;;;;;11.85;1.80;;;;;;;;;;5006918;28;20073;-67
2021/10/21 08:39:42;;;;;;;15.20;1.92;;;;;;;;;;5009340;28;20034;-67
2021/10/21 08:42:10;;;;;;;17.67;2.25;;;;;;;;;;5010227;28;20354;-67
2021/10/21 08:44:38;;;;;;;11.25;2.35;;;;;;;;;;5010726;28;20060;-67
2021/10/21 08:47:04;;;;;;;5.18;2.13;;;;;;;;;;5004690;28;20037;-67
2021/10/21 08:49:31;;;;;;;9.55;1.52;;;;;;;;;;4985451;28;20369;-68
2021/10/21 08:51:58;;;;;;;6.57;0.93;;;;;;;;;;4972151;28;20046;-67
2021/10/21 08:54:24;;;;;;;7.50;1.15;;;;;;;;;;4998448;28;20053;-68
2021/10/21 08:56:50;;;;;;;14.48;2.95;;;;;;;;;;4991094;28;20050;-67
2021/10/21 08:59:16;;;;;;;13.88;1.95;;;;;;;;;;4989156;28;20573;-67
2021/10/21 09:01:58;;;;;;;15.55;1.77;;;;;;;;;;4986421;28;20058;-68
2021/10/21 09:04:38;;;;;;;11.32;1.83;;;;;;;;;;4979125;28;20137;-67
2021/10/21 09:09:34;;;;;;;10.65;1.50;;;;;;;;;;4983168;28;20055;-67
2021/10/21 09:12:04;;;;;;;16.08;1.70;;;;;;;;;;4978450;28;20133;-67
2021/10/21 09:14:33;;;;;;;14.50;1.63;;;;;;;;;;4976217;28;20042;-67
2021/10/21 09:17:01;;;;;;;9.52;1.63;;;;;;;;;;4987414;28;20074;-67
2021/10/21 09:19:28;;;;;;;11.63;1.83;;;;;;;;;;4987658;28;20185;-67
2021/10/21 09:21:54;;;;;;;12.60;1.83;;;;;;;;;;4991014;28;20042;-68
2021/10/21 09:24:24;;;;;;;11.88;2.25;;;;;;;;;;5008395;28;20761;-67
2021/10/21 09:26:58;;;;;;;11.73;1.80;;;;;;;;;;4992296;28;20072;-67
2021/10/21 09:29:24;;;;;;;;;;;;;;;;;;4992522;28;20050;-68
2021/10/21 09:32:04;;;;;;;11.65;1.70;;;;;;;;;;4992478;28;19957;-66
2021/10/21 09:34:30;;;;;;;14.93;2.10;;;;;;;;;;4993779;28;20034;-72
2021/10/21 09:37:03;;;;;;;12.57;2.00;;;;;;;;;;5007660;28;20093;-71
2021/10/21 09:39:50;;;;;;;11.35;1.48;;;;;;;;;;4994479;28;20038;-72
2021/10/21 09:42:16;;;;;;;15.07;2.85;;;;;;;;;;4992560;28;20051;-72
2021/10/21 09:44:43;;;;;;;11.85;1.90;;;;;;;;;;4992071;28;20038;-73
2021/10/21 09:47:16;;;;;;;12.07;1.85;;;;;;;;;;4993376;28;20254;-73
2021/10/21 09:49:44;;;;;;;9.25;1.50;;;;;;;;;;4993225;28;20054;-73
2021/10/21 09:52:15;;;;;;;12.27;1.80;;;;;;;;;;4993267;28;20152;-78
2021/10/21 09:54:41;;;;;;;11.75;1.70;;;;;;;;;;4992528;28;20093;-72
2021/10/21 09:57:13;;;;;;;10.07;1.30;;;;;;;;;;4991090;28;20057;-72
2021/10/21 09:59:40;;;;;;;10.18;1.77;;;;;;;;;;5002909;28;20193;-76
2021/10/21 10:02:14;;;;;;;10.95;2.08;;;;;;;;;;4995210;28;20164;-71
2021/10/21 10:04:42;;;;;;;7.57;1.65;;;;;;;;;;5009110;28;20052;-72
2021/10/21 10:07:10;;;;;;;14.88;1.90;;;;;;;;;;5012076;28;20188;-72
2021/10/21 10:09:36;;;;;;;13.90;2.22;;;;;;;;;;4995557;28;20033;-72
2021/10/21 10:12:05;;;;;;;14.00;2.30;;;;;;;;;;4995898;28;20046;-72
2021/10/21 10:14:31;;;;;;;16.85;1.95;;;;;;;;;;4996553;28;20050;-72
2021/10/21 10:16:59;;;;;;;15.73;3.08;;;;;;;;;;5012578;28;20042;-71
2021/10/21 10:19:26;;;;;;;15.40;2.25;;;;;;;;;;5012108;28;20073;-71
2021/10/21 10:21:54;;;;;;;14.07;2.42;;;;;;;;;;4979051;28;20531;-71
2021/10/21 10:24:27;;;;;;;16.88;2.33;;;;;;;;;;4999967;28;20053;-72
2021/10/21 10:26:55;;;;;;;16.35;2.58;;;;;;;;;;4994726;28;20041;-72
2021/10/21 10:29:32;;;;;;;15.55;2.58;;;;;;;;;;4995433;28;20085;-72
2021/10/21 10:32:00;;;;;;;15.35;2.55;;;;;;;;;;5009177;28;20073;-72
2021/10/21 10:34:32;;;;;;;16.80;2.63;;;;;;;;;;5016547;28;20460;-72
2021/10/21 10:37:28;;;;;;;19.30;3.13;;;;;;;;;;4999810;28;20208;-72
2021/10/21 10:39:56;;;;;;;15.05;2.20;;;;;;;;;;5001289;28;20050;-66
2021/10/21 10:42:32;;;;;;;15.02;2.40;;;;;;;;;;4999654;28;20046;-66
2021/10/21 10:44:58;;;;;;;13.48;2.28;;;;;;;;;;5012003;28;20156;-66
2021/10/21 10:47:42;;;;;;;16.10;2.78;;;;;;;;;;5010052;28;20049;-67
2021/10/21 10:50:08;;;;;;;;;;;;;;;;;;5001245;28;20232;-66
2021/10/21 10:52:50;;;;;;;12.40;2.22;;;;;;;;;;5011181;28;19929;-66
2021/10/21 10:55:17;;;;;;;16.05;1.88;;;;;;;;;;5003823;28;20108;-66
2021/10/21 10:57:43;;;;;;;9.85;2.33;;;;;;;;;;4993269;28;20478;-66
2021/10/21 11:00:33;;;;;;;12.77;2.22;;;;;;;;;;5010616;28;20351;-66
2021/10/21 11:02:59;;;;;;;12.68;2.22;;;;;;;;;;5011574;28;20049;-66
2021/10/21 11:05:47;;;;;;;8.15;1.40;;;;;;;;;;5012246;28;20118;-66
2021/10/21 11:08:15;;;;;;;12.73;1.90;;;;;;;;;;5008548;28;20501;-66
2021/10/21 11:10:43;;;;;;;15.15;1.77;;;;;;;;;;4994498;28;20073;-66
2021/10/21 11:13:19;;;;;;;15.38;2.03;;;;;;;;;;5006559;28;20049;-66
2021/10/21 11:15:47;;;;;;;10.45;1.73;;;;;;;;;;5009596;28;20045;-66
2021/10/21 11:18:22;;;;;;;11.45;1.40;;;;;;;;;;4986618;28;20394;-66
2021/10/21 11:20:49;;;;;;;5.47;1.20;;;;;;;;;;5006936;28;20502;-66
2021/10/21 11:23:27;;;;;;;6.25;1.40;;;;;;;;;;4992026;28;20121;-67
2021/10/21 11:26:00;;;;;;;4.88;1.00;;;;;;;;;;4996631;28;20064;-66
2021/10/21 11:28:27;;;;;;;3.87;1.03;;;;;;;;;;5003744;28;20042;-65
2021/10/21 11:30:53;;;;;;;4.30;0.65;;;;;;;;;;4996718;28;20128;-66
2021/10/21 11:33:19;;;;;;;4.60;0.73;;;;;;;;;;5004742;28;20037;-66
2021/10/21 11:35:46;;;;;;;12.25;1.75;;;;;;;;;;5004510;28;20038;-66
2021/10/21 11:38:13;;;;;;;6.80;1.42;;;;;;;;;;5002778;28;20123;-65
2021/10/21 11:40:41;;;;;;;4.90;0.80;;;;;;;;;;5004764;28;20042;-66
2021/10/21 11:43:07;;;;;;;11.80;1.77;;;;;;;;;;4999874;28;20046;-65
2021/10/21 11:45:35;;;;;;;8.90;1.23;;;;;;;;;;5010008;28;20041;-66
2021/10/21 11:48:08;;;;;;;12.70;1.35;;;;;;;;;;5010868;28;20037;-66
2021/10/21 11:50:38;;;;;;;12.02;1.27;;;;;;;;;;5010472;28;20229;-65
2021/10/21 11:53:05;;;;;;;6.07;1.27;;;;;;;;;;5010904;28;20038;-66
2021/10/21 11:55:32;;;;;;;7.28;1.00;;;;;;;;;;5009499;28;20482;-65
2021/10/21 11:58:01;;;;;;;9.40;1.60;;;;;;;;;;4995038;28;20048;-66
2021/10/21 12:00:31;;;;;;;12.52;2.08;;;;;;;;;;5010258;28;20144;-66
2021/10/21 12:02:58;;;;;;;13.82;1.95;;;;;;;;;;4990867;28;20041;-66
2021/10/21 12:05:26;;;;;;;14.93;2.08;;;;;;;;;;5007294;28;20465;-66
2021/10/21 12:07:53;;;;;;;15.77;3.20;;;;;;;;;;5009622;28;20101;-66
2021/10/21 12:10:26;;;;;;;16.52;2.97;;;;;;;;;;5009187;28;20470;-66
2021/10/21 12:12:52;;;;;;;25.70;4.43;;;;;;;;;;4986550;28;20085;-66
2021/10/21 12:15:19;;;;;;;20.38;3.42;;;;;;;;;;5007251;28;20080;-65
2021/10/21 12:17:46;;;;;;;19.95;3.20;;;;;;;;;;5004206;28;20080;-66
2021/10/21 12:20:13;;;;;;;11.68;2.33;;;;;;;;;;4988547;28;20463;-65
2021/10/21 12:22:39;;;;;;;18.35;3.20;;;;;;;;;;4992587;28;20067;-66
2021/10/21 12:25:06;;;;;;;27.38;4.53;;;;;;;;;;4990682;28;20064;-66
2021/10/21 12:27:32;;;;;;;28.95;4.57;;;;;;;;;;5003003;28;20046;-66
2021/10/21 12:30:00;;;;;;;27.20;3.85;;;;;;;;;;5010169;28;20042;-66
2021/10/21 12:32:26;;;;;;;27.75;4.63;;;;;;;;;;5009110;28;20051;-66
2021/10/21 12:35:03;;;;;;;25.88;4.45;;;;;;;;;;5010505;28;20087;-65
2021/10/21 12:37:38;;;;;;;23.88;4.82;;;;;;;;;;4992655;28;20057;-66
2021/10/21 12:40:12;;;;;;;25.08;5.13;;;;;;;;;;5009437;28;20046;-66
2021/10/21 12:42:38;;;;;;;28.58;5.22;;;;;;;;;;4993342;28;20038;-66
2021/10/21 12:45:05;;;;;;;28.30;5.65;;;;;;;;;;5009901;28;20038;-66
2021/10/21 12:47:32;;;;;;;28.73;5.40;;;;;;;;;;5009678;28;20084;-69
2021/10/21 12:49:59;;;;;;;29.77;5.43;;;;;;;;;;4993924;28;20072;-67
2021/10/21 12:52:27;;;;;;;29.80;5.85;;;;;;;;;;5009066;28;20505;-67
2021/10/21 12:55:12;;;;;;;32.28;5.80;;;;;;;;;;4995374;28;20060;-67
2021/10/21 12:57:42;;;;;;;30.92;4.35;;;;;;;;;;5013672;28;20053;-67
2021/10/21 13:00:09;;;;;;;25.27;3.90;;;;;;;;;;5011773;28;20060;-67
2021/10/21 13:02:35;;;;;;;29.25;4.22;;;;;;;;;;5000916;28;20050;-66
2021/10/21 13:05:02;;;;;;;20.38;4.38;;;;;;;;;;4999188;28;20049;-66
2021/10/21 13:07:29;;;;;;;14.60;3.20;;;;;;;;;;5012642;28;20061;-69
2021/10/21 13:09:55;;;;;;;23.45;4.30;;;;;;;;;;5000113;28;20128;-74
2021/10/21 13:12:22;;;;;;;26.00;4.53;;;;;;;;;;4978798;28;20038;-71
2021/10/21 13:14:50;;;;;;;16.38;4.07;;;;;;;;;;5007093;28;20077;-71
2021/10/21 13:17:17;;;;;;;22.70;3.45;;;;;;;;;;4994925;28;20037;-72
2021/10/21 13:19:43;;;;;;;20.98;4.30;;;;;;;;;;4992684;28;20562;-71
2021/10/21 13:22:11;;;;;;;21.67;3.67;;;;;;;;;;5007247;28;20512;-72
2021/10/21 13:24:37;;;;;;;23.17;3.90;;;;;;;;;;5012330;28;20068;-71
2021/10/21 13:27:04;;;;;;;24.17;4.40;;;;;;;;;;5013411;28;20042;-71
2021/10/21 13:29:31;;;;;;;22.10;3.80;;;;;;;;;;4996952;28;20065;-71
2021/10/21 13:31:57;;;;;;;19.80;3.35;;;;;;;;;;4996912;28;20044;-72
2021/10/21 13:34:24;;;;;;;22.30;4.10;;;;;;;;;;4996431;28;20500;-72
2021/10/21 13:36:50;;;;;;;15.73;3.15;;;;;;;;;;4996839;28;20485;-72
2021/10/21 13:39:17;;;;;;;22.35;4.53;;;;;;;;;;4997244;28;20042;-72
2021/10/21 13:41:43;;;;;;;26.67;4.70;;;;;;;;;;5012227;28;20050;-72
2021/10/21 13:44:10;;;;;;;26.67;4.93;;;;;;;;;;5000266;28;20049;-73
2021/10/21 13:46:36;;;;;;;26.38;5.45;;;;;;;;;;4981851;28;20052;-72
2021/10/21 13:49:02;;;;;;;20.88;3.50;;;;;;;;;;4996643;28;20061;-73
2021/10/21 13:51:29;;;;;;;21.42;3.70;;;;;;;;;;5013430;28;20053;-72
2021/10/21 13:53:55;;;;;;;20.60;4.10;;;;;;;;;;4994219;28;20057;-71
2021/10/21 13:56:21;;;;;;;16.92;2.58;;;;;;;;;;4996024;28;20052;-78
2021/10/21 13:58:48;;;;;;;13.23;2.05;;;;;;;;;;4993726;28;20457;-67
2021/10/21 14:01:19;;;;;;;16.20;2.35;;;;;;;;;;4991980;28;20146;-68
2021/10/21 14:03:45;;;;;;;8.75;1.65;;;;;;;;;;4979980;28;20061;-68
2021/10/21 14:06:12;;;;;;;15.10;3.67;;;;;;;;;;4997316;28;20058;-66
2021/10/21 14:08:38;;;;;;;12.85;2.47;;;;;;;;;;4992781;28;20125;-66
2021/10/21 14:11:04;;;;;;;12.63;2.88;;;;;;;;;;4976920;28;20062;-66
2021/10/21 14:13:30;;;;;;;11.52;2.42;;;;;;;;;;4983910;28;20038;-66
2021/10/21 14:15:57;;;;;;;13.75;1.98;;;;;;;;;;4993731;28;20057;-66
2021/10/21 14:18:23;;;;;;;12.68;2.42;;;;;;;;;;4978098;28;20046;-67
2021/10/21 14:20:49;;;;;;;24.30;3.95;;;;;;;;;;4992912;28;20132;-67
2021/10/21 14:23:15;;;;;;;21.27;3.22;;;;;;;;;;4992704;28;20489;-67
2021/10/21 14:25:41;;;;;;;20.63;3.08;;;;;;;;;;4991867;28;20038;-67
2021/10/21 14:28:08;;;;;;;14.82;4.00;;;;;;;;;;4976091;28;20050;-67
2021/10/21 14:30:34;;;;;;;24.70;3.58;;;;;;;;;;4994557;28;20050;-66
2021/10/21 14:33:00;;;;;;;24.10;3.95;;;;;;;;;;4992696;28;20494;-67
2021/10/21 14:35:26;;;;;;;49.97;5.90;;;;;;;;;;4989922;28;20035;-67